Monte Alegre — DFWV2 — position and weather

sailwx.info

Track history (hours):
 
Tides and Currents Weather Stations Pressure Air Temp Water Temp Dewpoint Dewpoint Depression Visibility Wind Speed Wind Dir Waves Ship Positions

Monte Alegre

Last reported at 2018-Mar-27 08:51 UTC. Time now 2018-Apr-19 23:18 UTC.
Position N 53°31' E 009°56'.
Warning: this ship's position is 23 days out of date.

Length 272 m; draft 10.1 m.

Type: Cargo ship. MMSI: 218744000.

Date/timePositionNaut miles runAvg speedWind from/ knotsBaromVisibWave heightAir tempDewpointWater temp
2018-Mar-27 08:51N 53°31' E 009°56'0 0.0
2018-Mar-27 08:30N 53°31' E 009°56'0 0.0
2018-Mar-27 08:00N 53°31' E 009°56'0 0.0
2018-Mar-27 07:30N 53°31' E 009°56'0 0.0
2018-Mar-27 07:00N 53°31' E 009°56'0 0.0
2018-Mar-27 06:30N 53°31' E 009°56'0 0.0
2018-Mar-27 06:00N 53°31' E 009°56'0 0.0
2018-Mar-27 05:30N 53°31' E 009°56'0 0.0
2018-Mar-27 05:00N 53°31' E 009°56'0 0.0
2018-Mar-27 04:30N 53°31' E 009°56'0 0.0
2018-Mar-27 04:00N 53°31' E 009°56'0 0.0
2018-Mar-27 03:30N 53°31' E 009°56'0 0.0
2018-Mar-27 03:00N 53°31' E 009°56'0 0.0
2018-Mar-27 02:30N 53°31' E 009°56'0 0.0
2018-Mar-27 02:00N 53°31' E 009°56'0 0.0
2018-Mar-27 01:30N 53°31' E 009°56'0 0.0
2018-Mar-27 01:00N 53°31' E 009°56'0 0.0
2018-Mar-27 00:30N 53°31' E 009°56'0 0.0
2018-Mar-27 00:00N 53°31' E 009°56'0 0.0
2018-Mar-26 23:30N 53°31' E 009°56'0 0.0
2018-Mar-26 23:00N 53°31' E 009°56'0 0.0
2018-Mar-26 22:30N 53°31' E 009°56'0 0.0
2018-Mar-26 22:00N 53°31' E 009°56'0 0.0
2018-Mar-26 21:30N 53°31' E 009°56'0 0.0
2018-Mar-26 21:00N 53°31' E 009°56'0 0.0
2018-Mar-26 20:30N 53°31' E 009°56'0 0.0
2018-Mar-26 20:00N 53°31' E 009°56'0 0.0
2018-Mar-26 19:30N 53°31' E 009°56'0 0.0
2018-Mar-26 19:00N 53°31' E 009°56'1 1.1
2018-Mar-26 18:30N 53°30' E 009°57'3 5.5
2018-Mar-26 18:00N 53°32' E 009°55'510.0
2018-Mar-26 17:30N 53°34' E 009°46'510.5
2018-Mar-26 17:00N 53°35' E 009°38'611.9
2018-Mar-26 16:30N 53°39' E 009°31'510.6
2018-Mar-26 16:00N 53°44' E 009°27'510.1
2018-Mar-26 15:30N 53°48' E 009°23'612.0
2018-Mar-26 15:00N 53°52' E 009°15'510.6
2018-Mar-26 14:30N 53°53' E 009°06'612.1
2018-Mar-26 14:00N 53°51' E 008°57'612.6
2018-Mar-26 13:30N 53°51' E 008°46'510.3
2018-Mar-26 13:00N 53°55' E 008°41'612.8
2018-Mar-26 12:30N 53°58' E 008°31'713.9
2018-Mar-26 11:59N 53°59' E 008°19'714.2
2018-Mar-26 11:30N 53°59' E 008°08'713.2
2018-Mar-26 11:00N 53°58' E 007°57'713.2
2018-Mar-26 10:30N 53°57' E 007°46'713.1
2018-Mar-26 09:59N 53°55' E 007°35'812.9
2018-Mar-26 09:21N 53°53' E 007°21'2612.9
2018-Mar-26 07:21N 53°48' E 006°38'4112.6
2018-Mar-26 04:05N 53°35' E 005°32'913.0
2018-Mar-26 03:23N 53°33' E 005°17'513.2
2018-Mar-26 03:00N 53°31' E 005°09'713.2
2018-Mar-26 02:30N 53°29' E 004°59'713.5
2018-Mar-26 02:00N 53°26' E 004°49'713.1
2018-Mar-26 01:30N 53°21' E 004°42'713.5
2018-Mar-26 01:00N 53°15' E 004°37'713.6
2018-Mar-26 00:30N 53°09' E 004°30'714.1
2018-Mar-26 00:01N 53°03' E 004°24'714.2
2018-Mar-25 23:30N 52°57' E 004°18'714.0
2018-Mar-25 23:00N 52°50' E 004°13'714.0
2018-Mar-25 22:30N 52°45' E 004°07'713.7
2018-Mar-25 22:00N 52°40' E 003°59'713.7
2018-Mar-25 21:30N 52°35' E 003°51'613.1
2018-Mar-25 21:00N 52°31' E 003°43'713.8
2018-Mar-25 20:30N 52°26' E 003°35'713.9
2018-Mar-25 20:00N 52°19' E 003°29'713.8
2018-Mar-25 19:29N 52°13' E 003°27'713.9
2018-Mar-25 18:59N 52°06' E 003°26'713.7
2018-Mar-25 18:30N 51°59' E 003°24'713.4
2018-Mar-25 18:00N 51°53' E 003°21'713.3
2018-Mar-25 17:30N 51°47' E 003°16'612.1
2018-Mar-25 16:58N 51°41' E 003°13'613.4
2018-Mar-25 16:30N 51°34' E 003°10'714.3
2018-Mar-25 16:00N 51°29' E 003°03'5 9.5
2018-Mar-25 15:30N 51°24' E 003°04'1514.9
2018-Mar-25 14:30N 51°25' E 003°28'611.8
2018-Mar-25 14:00N 51°26' E 003°37'611.6
2018-Mar-25 13:30N 51°22' E 003°44'1111.3
2018-Mar-25 12:30N 51°26' E 004°02'611.3
2018-Mar-25 12:00N 51°23' E 004°10'4 8.7
2018-Mar-25 11:30N 51°21' E 004°16'0 0.0
2018-Mar-25 09:00N 51°21' E 004°16'0 0.0
2018-Mar-25 08:00N 51°21' E 004°16'0 0.0
2018-Mar-25 07:30N 51°21' E 004°16'0 0.0
2018-Mar-25 07:01N 51°21' E 004°16'0 0.0
2018-Mar-25 06:31N 51°21' E 004°16'0 0.0
2018-Mar-25 06:01N 51°21' E 004°16'0 0.0
2018-Mar-25 05:31N 51°21' E 004°16'0 0.0
2018-Mar-25 05:01N 51°21' E 004°16'0 0.0
2018-Mar-25 04:30N 51°21' E 004°16'0 0.0
2018-Mar-25 04:01N 51°21' E 004°16'0 0.0
2018-Mar-25 03:31N 51°21' E 004°16'0 0.0
2018-Mar-25 03:01N 51°21' E 004°16'0 0.0
2018-Mar-25 02:30N 51°21' E 004°16'0 0.0
2018-Mar-25 02:01N 51°21' E 004°16'0 0.0
2018-Mar-25 01:31N 51°21' E 004°16'0 0.0
2018-Mar-25 01:00N 51°21' E 004°16'0 0.0
2018-Mar-25 00:31N 51°21' E 004°16'0 0.0
2018-Mar-25 00:00N 51°21' E 004°16'0 0.0
2018-Mar-24 23:30N 51°21' E 004°16'0 0.0
2018-Mar-24 23:01N 51°21' E 004°16'0 0.0
2018-Mar-24 22:31N 51°21' E 004°16'0 0.0
2018-Mar-24 22:00N 51°21' E 004°16'0 0.0
2018-Mar-24 21:31N 51°21' E 004°16'0 0.0
2018-Mar-24 21:00N 51°21' E 004°16'0 0.0
2018-Mar-24 20:31N 51°21' E 004°16'0 0.0
2018-Mar-24 20:01N 51°21' E 004°16'0 0.0
2018-Mar-24 19:30N 51°21' E 004°16'0 0.0
2018-Mar-24 19:00N 51°21' E 004°16'0 0.0
2018-Mar-24 18:31N 51°21' E 004°16'0 0.0
2018-Mar-24 18:00N 51°21' E 004°16'0 0.0
2018-Mar-24 17:31N 51°21' E 004°16'0 0.0
2018-Mar-24 17:01N 51°21' E 004°16'0 0.0
2018-Mar-24 16:31N 51°21' E 004°16'0 0.0
2018-Mar-24 16:01N 51°21' E 004°16'0 0.0
2018-Mar-24 15:31N 51°21' E 004°16'0 0.0
2018-Mar-24 15:01N 51°21' E 004°16'0 0.0
2018-Mar-24 14:30N 51°21' E 004°16'0 0.0
2018-Mar-24 14:00N 51°21' E 004°16'0 0.0
2018-Mar-24 13:30N 51°21' E 004°16'0 0.0
2018-Mar-24 13:01N 51°21' E 004°16'0 0.0
2018-Mar-24 12:30N 51°21' E 004°16'0 0.0
2018-Mar-24 12:01N 51°21' E 004°16'0 0.0
2018-Mar-24 11:30N 51°21' E 004°16'0 0.0
2018-Mar-24 11:00N 51°21' E 004°16'0 0.0
2018-Mar-24 10:30N 51°21' E 004°16'0 0.0
2018-Mar-24 10:00N 51°21' E 004°16'0 0.0
2018-Mar-24 09:31N 51°21' E 004°16'0 0.0
2018-Mar-24 09:01N 51°21' E 004°16'0 0.0
2018-Mar-24 08:30N 51°21' E 004°16'0 0.0
2018-Mar-24 08:00N 51°21' E 004°16'0 0.0
2018-Mar-24 07:30N 51°21' E 004°16'0 0.0
2018-Mar-24 07:00N 51°21' E 004°16'0 0.0
2018-Mar-24 06:30N 51°21' E 004°16'0 0.0
2018-Mar-24 06:01N 51°21' E 004°16'0 0.2
2018-Mar-24 05:30N 51°21' E 004°16'2 4.9
2018-Mar-24 05:00N 51°23' E 004°13'5 9.4
2018-Mar-24 04:30N 51°22' E 004°05'510.3
2018-Mar-24 04:00N 51°26' E 004°00'612.8
2018-Mar-24 03:30N 51°21' E 003°53'713.1
2018-Mar-24 03:00N 51°23' E 003°43'510.0
2018-Mar-24 02:30N 51°26' E 003°37'611.6
2018-Mar-24 02:00N 51°25' E 003°28'815.7
2018-Mar-24 01:30N 51°25' E 003°15'714.7
2018-Mar-24 01:00N 51°24' E 003°04'713.6
2018-Mar-24 00:30N 51°22' E 002°53'713.5
2018-Mar-24 00:00N 51°21' E 002°42'3 6.3
2018-Mar-23 23:30N 51°22' E 002°37'2 4.9
2018-Mar-23 23:01N 51°21' E 002°34'0 0.7
2018-Mar-23 22:30N 51°21' E 002°34'1 1.0
2018-Mar-23 22:00N 51°21' E 002°35'2 4.3
2018-Mar-23 21:29N 51°22' E 002°32'510.7
2018-Mar-23 21:01N 51°21' E 002°24'611.8
2018-Mar-23 20:31N 51°18' E 002°16'612.3
2018-Mar-23 20:01N 51°15' E 002°08'612.7
2018-Mar-23 19:31N 51°11' E 001°59'612.8
2018-Mar-23 19:01N 51°08' E 001°50'713.4
2018-Mar-23 18:30N 51°04' E 001°42'917.9
2018-Mar-23 18:00N 50°58' E 001°31'917.6
2018-Mar-23 17:30N 50°51' E 001°24'917.2
2018-Mar-23 17:00N 50°43' E 001°18'917.2
2018-Mar-23 16:30N 50°37' E 001°08'816.7
2018-Mar-23 16:00N 50°32' E 000°58'816.8
2018-Mar-23 15:30N 50°29' E 000°45'816.6
2018-Mar-23 15:00N 50°26' E 000°33'816.9
2018-Mar-23 14:30N 50°24' E 000°20'917.4
2018-Mar-23 14:00N 50°22' E 000°07'917.8
2018-Mar-23 13:30N 50°19' W 000°07'1020.1
2018-Mar-23 13:00N 50°17' W 000°22'1020.6
2018-Mar-23 12:30N 50°14' W 000°37'1020.9
2018-Mar-23 12:00N 50°12' W 000°53'1121.2
2018-Mar-23 11:30N 50°09' W 001°09'1121.2
2018-Mar-23 11:01N 50°06' W 001°25'1121.1
2018-Mar-23 10:30N 50°03' W 001°41'1020.7
2018-Mar-23 10:00N 50°00' W 001°56'1020.0
2018-Mar-23 09:30N 49°57' W 002°11'1019.3
2018-Mar-23 09:00N 49°54' W 002°25'1018.7
2018-Mar-23 08:28N 49°51' W 002°40'818.3
2018-Mar-23 08:01N 49°47' W 002°52'918.0
2018-Mar-23 07:30N 49°43' W 003°04'918.0
2018-Mar-23 07:01N 49°39' W 003°16'1615.4
2018-Mar-23 06:00N 49°30' W 003°36'8117.7 260 / 171005.6 5.4 10.0 5.4 8.0
2018-Mar-23 01:26N 48°53' W 005°26'716.1
2018-Mar-23 01:00N 48°49' W 005°34'13619.3
2018-Mar-22 18:00N 46°48' W 007°06'24820.7 200 / 211018.4 5.4 11.0 7.310.0
2018-Mar-22 06:00N 43°06' W 009°42'23019.9 040 / 121027.210.8 10.1 1.511.0
2018-Mar-21 18:27N 39°16' W 009°52'919.7
2018-Mar-21 18:00N 39°07' W 009°52'4315.7
2018-Mar-21 18:00N 39°06' W 009°48'918.4 010 / 191026.9 5.4 12.5 5.612.0
2018-Mar-21 17:30N 38°58' W 009°52'1019.4
2018-Mar-21 17:00N 38°48' W 009°53'1019.4
2018-Mar-21 16:30N 38°38' W 009°51'1019.1
2018-Mar-21 16:00N 38°29' W 009°48'1019.2
2018-Mar-21 15:30N 38°20' W 009°45'1019.0
2018-Mar-21 15:00N 38°10' W 009°42'919.3
2018-Mar-21 14:30N 38°01' W 009°40'1019.7
2018-Mar-21 14:00N 37°51' W 009°38'1119.7
2018-Mar-21 13:26N 37°40' W 009°34'1219.4
2018-Mar-21 12:50N 37°29' W 009°31'7817.3
2018-Mar-21 08:21N 36°34' W 008°23'720.2
2018-Mar-21 08:00N 36°32' W 008°14'4321.3
2018-Mar-21 06:00N 36°18' W 007°24'8820.2 360 / 201022.410.8 12.1 6.614.0
2018-Mar-21 01:38N 35°58' W 005°37'220.6
2018-Mar-21 01:30N 35°58' W 005°35'918.5
2018-Mar-21 01:00N 36°02' W 005°24'510.3
2018-Mar-21 00:30N 36°07' W 005°25'1 1.4
2018-Mar-20 23:58N 36°08' W 005°25'0 0.0
2018-Mar-20 23:30N 36°08' W 005°25'0 0.0
2018-Mar-20 23:00N 36°08' W 005°25'0 0.0
2018-Mar-20 22:30N 36°08' W 005°25'0 0.0
2018-Mar-20 22:00N 36°08' W 005°25'0 0.0
2018-Mar-20 21:30N 36°08' W 005°25'0 0.0
2018-Mar-20 21:00N 36°08' W 005°25'0 0.0
2018-Mar-20 20:30N 36°08' W 005°25'0 0.0
2018-Mar-20 20:00N 36°08' W 005°25'0 0.0
2018-Mar-20 19:30N 36°08' W 005°25'0 0.0
2018-Mar-20 19:00N 36°08' W 005°25'1 2.6
2018-Mar-20 18:30N 36°08' W 005°24'3 5.9
2018-Mar-20 18:00N 36°05' W 005°24'0 0.2
2018-Mar-20 17:30N 36°05' W 005°24'0 0.1
2018-Mar-20 17:00N 36°05' W 005°24'0 0.1
2018-Mar-20 16:30N 36°05' W 005°24'0 0.2
2018-Mar-20 16:00N 36°05' W 005°24'0 0.4
2018-Mar-20 15:30N 36°05' W 005°24'0 0.1
2018-Mar-20 15:00N 36°05' W 005°24'0 0.0
2018-Mar-20 14:30N 36°05' W 005°24'0 0.2
2018-Mar-20 13:58N 36°05' W 005°24'1 2.0
2018-Mar-20 13:30N 36°05' W 005°23'4 8.1
2018-Mar-20 13:00N 36°09' W 005°25'1 2.1
2018-Mar-20 12:30N 36°09' W 005°26'0 0.0
2018-Mar-20 12:00N 36°09' W 005°26'0 0.0
2018-Mar-20 11:30N 36°09' W 005°26'0 0.0
2018-Mar-20 11:00N 36°09' W 005°26'0 0.0
2018-Mar-20 10:29N 36°09' W 005°26'0 0.0
2018-Mar-20 09:57N 36°09' W 005°26'0 0.0
2018-Mar-20 09:30N 36°09' W 005°26'0 0.0
2018-Mar-20 09:00N 36°09' W 005°26'0 0.0
2018-Mar-20 08:30N 36°09' W 005°26'0 0.0
2018-Mar-20 08:00N 36°09' W 005°26'0 0.0
2018-Mar-20 07:30N 36°09' W 005°26'0 0.0
2018-Mar-20 07:00N 36°09' W 005°26'0 0.0
2018-Mar-20 06:30N 36°09' W 005°26'0 0.0
2018-Mar-20 06:00N 36°09' W 005°26'0 0.0
2018-Mar-20 05:30N 36°09' W 005°26'0 0.0
2018-Mar-20 05:00N 36°09' W 005°26'0 0.0
2018-Mar-20 04:30N 36°09' W 005°26'0 0.0
2018-Mar-20 04:00N 36°09' W 005°26'0 0.0
2018-Mar-20 03:30N 36°09' W 005°26'0 0.0
2018-Mar-20 03:00N 36°09' W 005°26'0 0.0
2018-Mar-20 02:30N 36°09' W 005°26'0 0.0
2018-Mar-20 02:00N 36°09' W 005°26'0 0.0
2018-Mar-20 01:30N 36°09' W 005°26'0 0.0
2018-Mar-20 01:00N 36°09' W 005°26'0 0.0
2018-Mar-20 00:30N 36°09' W 005°26'0 0.0
2018-Mar-20 00:00N 36°09' W 005°26'0 0.0
2018-Mar-19 23:30N 36°09' W 005°26'0 0.0
2018-Mar-19 23:00N 36°09' W 005°26'0 0.0
2018-Mar-19 22:30N 36°09' W 005°26'0 0.0
2018-Mar-19 22:00N 36°09' W 005°26'1 1.7
2018-Mar-19 21:30N 36°09' W 005°25'2 3.6
2018-Mar-19 21:00N 36°08' W 005°23'1 1.4
2018-Mar-19 20:30N 36°07' W 005°23'2 4.7
2018-Mar-19 20:00N 36°05' W 005°22'1 1.5
2018-Mar-19 19:30N 36°05' W 005°22'1 2.0
2018-Mar-19 19:00N 36°05' W 005°21'1 1.2
2018-Mar-19 18:30N 36°05' W 005°22'1 1.0
2018-Mar-19 18:00N 36°05' W 005°21'1 2.3
2018-Mar-19 17:30N 36°04' W 005°20'4 7.6
2018-Mar-19 17:00N 36°04' W 005°15'4 7.2
2018-Mar-19 16:30N 36°06' W 005°12'6 0.6
2018-Mar-19 06:37N 36°11' W 005°08'1 4.2
2018-Mar-19 06:27N 36°10' W 005°07'2 2.5
2018-Mar-19 05:49N 36°10' W 005°09'1 3.0
2018-Mar-19 05:30N 36°10' W 005°10'1 1.9
2018-Mar-19 04:57N 36°09' W 005°11'4 9.3
2018-Mar-19 04:30N 36°05' W 005°11'27412.2
2018-Mar-18 06:00N 36°54' E 000°24'   340 / 161002.1 5.4 11.1 8.713.0
Track history (hours):
 
Tides and Currents Weather Stations Pressure Air Temp Water Temp Dewpoint Dewpoint Depression Visibility Wind Speed Wind Dir Waves Ship Positions

Monte Alegre

Last reported at 2018-Mar-27 08:51 UTC. Time now 2018-Apr-19 23:18 UTC.
Position N 53°31' E 009°56'.
Warning: this ship's position is 23 days out of date.

Length 272 m; draft 10.1 m.

Type: Cargo ship. MMSI: 218744000.

Date/timePositionNaut miles runAvg speedWind from/ knotsBaromVisibWave heightAir tempDewpointWater temp
2018-Mar-27 08:51N 53°31' E 009°56'0 0.0
2018-Mar-27 08:30N 53°31' E 009°56'0 0.0
2018-Mar-27 08:00N 53°31' E 009°56'0 0.0
2018-Mar-27 07:30N 53°31' E 009°56'0 0.0
2018-Mar-27 07:00N 53°31' E 009°56'0 0.0
2018-Mar-27 06:30N 53°31' E 009°56'0 0.0
2018-Mar-27 06:00N 53°31' E 009°56'0 0.0
2018-Mar-27 05:30N 53°31' E 009°56'0 0.0
2018-Mar-27 05:00N 53°31' E 009°56'0 0.0
2018-Mar-27 04:30N 53°31' E 009°56'0 0.0
2018-Mar-27 04:00N 53°31' E 009°56'0 0.0
2018-Mar-27 03:30N 53°31' E 009°56'0 0.0
2018-Mar-27 03:00N 53°31' E 009°56'0 0.0
2018-Mar-27 02:30N 53°31' E 009°56'0 0.0
2018-Mar-27 02:00N 53°31' E 009°56'0 0.0
2018-Mar-27 01:30N 53°31' E 009°56'0 0.0
2018-Mar-27 01:00N 53°31' E 009°56'0 0.0
2018-Mar-27 00:30N 53°31' E 009°56'0 0.0
2018-Mar-27 00:00N 53°31' E 009°56'0 0.0
2018-Mar-26 23:30N 53°31' E 009°56'0 0.0
2018-Mar-26 23:00N 53°31' E 009°56'0 0.0
2018-Mar-26 22:30N 53°31' E 009°56'0 0.0
2018-Mar-26 22:00N 53°31' E 009°56'0 0.0
2018-Mar-26 21:30N 53°31' E 009°56'0 0.0
2018-Mar-26 21:00N 53°31' E 009°56'0 0.0
2018-Mar-26 20:30N 53°31' E 009°56'0 0.0
2018-Mar-26 20:00N 53°31' E 009°56'0 0.0
2018-Mar-26 19:30N 53°31' E 009°56'0 0.0
2018-Mar-26 19:00N 53°31' E 009°56'1 1.1
2018-Mar-26 18:30N 53°30' E 009°57'3 5.5
2018-Mar-26 18:00N 53°32' E 009°55'510.0
2018-Mar-26 17:30N 53°34' E 009°46'510.5
2018-Mar-26 17:00N 53°35' E 009°38'611.9
2018-Mar-26 16:30N 53°39' E 009°31'510.6
2018-Mar-26 16:00N 53°44' E 009°27'510.1
2018-Mar-26 15:30N 53°48' E 009°23'612.0
2018-Mar-26 15:00N 53°52' E 009°15'510.6
2018-Mar-26 14:30N 53°53' E 009°06'612.1
2018-Mar-26 14:00N 53°51' E 008°57'612.6
2018-Mar-26 13:30N 53°51' E 008°46'510.3
2018-Mar-26 13:00N 53°55' E 008°41'612.8
2018-Mar-26 12:30N 53°58' E 008°31'713.9
2018-Mar-26 11:59N 53°59' E 008°19'714.2
2018-Mar-26 11:30N 53°59' E 008°08'713.2
2018-Mar-26 11:00N 53°58' E 007°57'713.2
2018-Mar-26 10:30N 53°57' E 007°46'713.1
2018-Mar-26 09:59N 53°55' E 007°35'812.9
2018-Mar-26 09:21N 53°53' E 007°21'2612.9
2018-Mar-26 07:21N 53°48' E 006°38'4112.6
2018-Mar-26 04:05N 53°35' E 005°32'913.0
2018-Mar-26 03:23N 53°33' E 005°17'513.2
2018-Mar-26 03:00N 53°31' E 005°09'713.2
2018-Mar-26 02:30N 53°29' E 004°59'713.5
2018-Mar-26 02:00N 53°26' E 004°49'713.1
2018-Mar-26 01:30N 53°21' E 004°42'713.5
2018-Mar-26 01:00N 53°15' E 004°37'713.6
2018-Mar-26 00:30N 53°09' E 004°30'714.1
2018-Mar-26 00:01N 53°03' E 004°24'714.2
2018-Mar-25 23:30N 52°57' E 004°18'714.0
2018-Mar-25 23:00N 52°50' E 004°13'714.0
2018-Mar-25 22:30N 52°45' E 004°07'713.7
2018-Mar-25 22:00N 52°40' E 003°59'713.7
2018-Mar-25 21:30N 52°35' E 003°51'613.1
2018-Mar-25 21:00N 52°31' E 003°43'713.8
2018-Mar-25 20:30N 52°26' E 003°35'713.9
2018-Mar-25 20:00N 52°19' E 003°29'713.8
2018-Mar-25 19:29N 52°13' E 003°27'713.9
2018-Mar-25 18:59N 52°06' E 003°26'713.7
2018-Mar-25 18:30N 51°59' E 003°24'713.4
2018-Mar-25 18:00N 51°53' E 003°21'713.3
2018-Mar-25 17:30N 51°47' E 003°16'612.1
2018-Mar-25 16:58N 51°41' E 003°13'613.4
2018-Mar-25 16:30N 51°34' E 003°10'714.3
2018-Mar-25 16:00N 51°29' E 003°03'5 9.5
2018-Mar-25 15:30N 51°24' E 003°04'1514.9
2018-Mar-25 14:30N 51°25' E 003°28'611.8
2018-Mar-25 14:00N 51°26' E 003°37'611.6
2018-Mar-25 13:30N 51°22' E 003°44'1111.3
2018-Mar-25 12:30N 51°26' E 004°02'611.3
2018-Mar-25 12:00N 51°23' E 004°10'4 8.7
2018-Mar-25 11:30N 51°21' E 004°16'0 0.0
2018-Mar-25 09:00N 51°21' E 004°16'0 0.0
2018-Mar-25 08:00N 51°21' E 004°16'0 0.0
2018-Mar-25 07:30N 51°21' E 004°16'0 0.0
2018-Mar-25 07:01N 51°21' E 004°16'0 0.0
2018-Mar-25 06:31N 51°21' E 004°16'0 0.0
2018-Mar-25 06:01N 51°21' E 004°16'0 0.0
2018-Mar-25 05:31N 51°21' E 004°16'0 0.0
2018-Mar-25 05:01N 51°21' E 004°16'0 0.0
2018-Mar-25 04:30N 51°21' E 004°16'0 0.0
2018-Mar-25 04:01N 51°21' E 004°16'0 0.0
2018-Mar-25 03:31N 51°21' E 004°16'0 0.0
2018-Mar-25 03:01N 51°21' E 004°16'0 0.0
2018-Mar-25 02:30N 51°21' E 004°16'0 0.0
2018-Mar-25 02:01N 51°21' E 004°16'0 0.0
2018-Mar-25 01:31N 51°21' E 004°16'0 0.0
2018-Mar-25 01:00N 51°21' E 004°16'0 0.0
2018-Mar-25 00:31N 51°21' E 004°16'0 0.0
2018-Mar-25 00:00N 51°21' E 004°16'0 0.0
2018-Mar-24 23:30N 51°21' E 004°16'0 0.0
2018-Mar-24 23:01N 51°21' E 004°16'0 0.0
2018-Mar-24 22:31N 51°21' E 004°16'0 0.0
2018-Mar-24 22:00N 51°21' E 004°16'0 0.0
2018-Mar-24 21:31N 51°21' E 004°16'0 0.0
2018-Mar-24 21:00N 51°21' E 004°16'0 0.0
2018-Mar-24 20:31N 51°21' E 004°16'0 0.0
2018-Mar-24 20:01N 51°21' E 004°16'0 0.0
2018-Mar-24 19:30N 51°21' E 004°16'0 0.0
2018-Mar-24 19:00N 51°21' E 004°16'0 0.0
2018-Mar-24 18:31N 51°21' E 004°16'0 0.0
2018-Mar-24 18:00N 51°21' E 004°16'0 0.0
2018-Mar-24 17:31N 51°21' E 004°16'0 0.0
2018-Mar-24 17:01N 51°21' E 004°16'0 0.0
2018-Mar-24 16:31N 51°21' E 004°16'0 0.0
2018-Mar-24 16:01N 51°21' E 004°16'0 0.0
2018-Mar-24 15:31N 51°21' E 004°16'0 0.0
2018-Mar-24 15:01N 51°21' E 004°16'0 0.0
2018-Mar-24 14:30N 51°21' E 004°16'0 0.0
2018-Mar-24 14:00N 51°21' E 004°16'0 0.0
2018-Mar-24 13:30N 51°21' E 004°16'0 0.0
2018-Mar-24 13:01N 51°21' E 004°16'0 0.0
2018-Mar-24 12:30N 51°21' E 004°16'0 0.0
2018-Mar-24 12:01N 51°21' E 004°16'0 0.0
2018-Mar-24 11:30N 51°21' E 004°16'0 0.0
2018-Mar-24 11:00N 51°21' E 004°16'0 0.0
2018-Mar-24 10:30N 51°21' E 004°16'0 0.0
2018-Mar-24 10:00N 51°21' E 004°16'0 0.0
2018-Mar-24 09:31N 51°21' E 004°16'0 0.0
2018-Mar-24 09:01N 51°21' E 004°16'0 0.0
2018-Mar-24 08:30N 51°21' E 004°16'0 0.0
2018-Mar-24 08:00N 51°21' E 004°16'0 0.0
2018-Mar-24 07:30N 51°21' E 004°16'0 0.0
2018-Mar-24 07:00N 51°21' E 004°16'0 0.0
2018-Mar-24 06:30N 51°21' E 004°16'0 0.0
2018-Mar-24 06:01N 51°21' E 004°16'0 0.2
2018-Mar-24 05:30N 51°21' E 004°16'2 4.9
2018-Mar-24 05:00N 51°23' E 004°13'5 9.4
2018-Mar-24 04:30N 51°22' E 004°05'510.3
2018-Mar-24 04:00N 51°26' E 004°00'612.8
2018-Mar-24 03:30N 51°21' E 003°53'713.1
2018-Mar-24 03:00N 51°23' E 003°43'510.0
2018-Mar-24 02:30N 51°26' E 003°37'611.6
2018-Mar-24 02:00N 51°25' E 003°28'815.7
2018-Mar-24 01:30N 51°25' E 003°15'714.7
2018-Mar-24 01:00N 51°24' E 003°04'713.6
2018-Mar-24 00:30N 51°22' E 002°53'713.5
2018-Mar-24 00:00N 51°21' E 002°42'3 6.3
2018-Mar-23 23:30N 51°22' E 002°37'2 4.9
2018-Mar-23 23:01N 51°21' E 002°34'0 0.7
2018-Mar-23 22:30N 51°21' E 002°34'1 1.0
2018-Mar-23 22:00N 51°21' E 002°35'2 4.3
2018-Mar-23 21:29N 51°22' E 002°32'510.7
2018-Mar-23 21:01N 51°21' E 002°24'611.8
2018-Mar-23 20:31N 51°18' E 002°16'612.3
2018-Mar-23 20:01N 51°15' E 002°08'612.7
2018-Mar-23 19:31N 51°11' E 001°59'612.8
2018-Mar-23 19:01N 51°08' E 001°50'713.4
2018-Mar-23 18:30N 51°04' E 001°42'917.9
2018-Mar-23 18:00N 50°58' E 001°31'917.6
2018-Mar-23 17:30N 50°51' E 001°24'917.2
2018-Mar-23 17:00N 50°43' E 001°18'917.2
2018-Mar-23 16:30N 50°37' E 001°08'816.7
2018-Mar-23 16:00N 50°32' E 000°58'816.8
2018-Mar-23 15:30N 50°29' E 000°45'816.6
2018-Mar-23 15:00N 50°26' E 000°33'816.9
2018-Mar-23 14:30N 50°24' E 000°20'917.4
2018-Mar-23 14:00N 50°22' E 000°07'917.8
2018-Mar-23 13:30N 50°19' W 000°07'1020.1
2018-Mar-23 13:00N 50°17' W 000°22'1020.6
2018-Mar-23 12:30N 50°14' W 000°37'1020.9
2018-Mar-23 12:00N 50°12' W 000°53'1121.2
2018-Mar-23 11:30N 50°09' W 001°09'1121.2
2018-Mar-23 11:01N 50°06' W 001°25'1121.1
2018-Mar-23 10:30N 50°03' W 001°41'1020.7
2018-Mar-23 10:00N 50°00' W 001°56'1020.0
2018-Mar-23 09:30N 49°57' W 002°11'1019.3
2018-Mar-23 09:00N 49°54' W 002°25'1018.7
2018-Mar-23 08:28N 49°51' W 002°40'818.3
2018-Mar-23 08:01N 49°47' W 002°52'918.0
2018-Mar-23 07:30N 49°43' W 003°04'918.0
2018-Mar-23 07:01N 49°39' W 003°16'1615.4
2018-Mar-23 06:00N 49°30' W 003°36'8117.7 260 / 171005.6 5.4 10.0 5.4 8.0
2018-Mar-23 01:26N 48°53' W 005°26'716.1
2018-Mar-23 01:00N 48°49' W 005°34'13619.3
2018-Mar-22 18:00N 46°48' W 007°06'24820.7 200 / 211018.4 5.4 11.0 7.310.0
2018-Mar-22 06:00N 43°06' W 009°42'23019.9 040 / 121027.210.8 10.1 1.511.0
2018-Mar-21 18:27N 39°16' W 009°52'919.7
2018-Mar-21 18:00N 39°07' W 009°52'4315.7
2018-Mar-21 18:00N 39°06' W 009°48'918.4 010 / 191026.9 5.4 12.5 5.612.0
2018-Mar-21 17:30N 38°58' W 009°52'1019.4
2018-Mar-21 17:00N 38°48' W 009°53'1019.4
2018-Mar-21 16:30N 38°38' W 009°51'1019.1
2018-Mar-21 16:00N 38°29' W 009°48'1019.2
2018-Mar-21 15:30N 38°20' W 009°45'1019.0
2018-Mar-21 15:00N 38°10' W 009°42'919.3
2018-Mar-21 14:30N 38°01' W 009°40'1019.7
2018-Mar-21 14:00N 37°51' W 009°38'1119.7
2018-Mar-21 13:26N 37°40' W 009°34'1219.4
2018-Mar-21 12:50N 37°29' W 009°31'7817.3
2018-Mar-21 08:21N 36°34' W 008°23'720.2
2018-Mar-21 08:00N 36°32' W 008°14'4321.3
2018-Mar-21 06:00N 36°18' W 007°24'8820.2 360 / 201022.410.8 12.1 6.614.0
2018-Mar-21 01:38N 35°58' W 005°37'220.6
2018-Mar-21 01:30N 35°58' W 005°35'918.5
2018-Mar-21 01:00N 36°02' W 005°24'510.3
2018-Mar-21 00:30N 36°07' W 005°25'1 1.4
2018-Mar-20 23:58N 36°08' W 005°25'0 0.0
2018-Mar-20 23:30N 36°08' W 005°25'0 0.0
2018-Mar-20 23:00N 36°08' W 005°25'0 0.0
2018-Mar-20 22:30N 36°08' W 005°25'0 0.0
2018-Mar-20 22:00N 36°08' W 005°25'0 0.0
2018-Mar-20 21:30N 36°08' W 005°25'0 0.0
2018-Mar-20 21:00N 36°08' W 005°25'0 0.0
2018-Mar-20 20:30N 36°08' W 005°25'0 0.0
2018-Mar-20 20:00N 36°08' W 005°25'0 0.0
2018-Mar-20 19:30N 36°08' W 005°25'0 0.0
2018-Mar-20 19:00N 36°08' W 005°25'1 2.6
2018-Mar-20 18:30N 36°08' W 005°24'3 5.9
2018-Mar-20 18:00N 36°05' W 005°24'0 0.2
2018-Mar-20 17:30N 36°05' W 005°24'0 0.1
2018-Mar-20 17:00N 36°05' W 005°24'0 0.1
2018-Mar-20 16:30N 36°05' W 005°24'0 0.2
2018-Mar-20 16:00N 36°05' W 005°24'0 0.4
2018-Mar-20 15:30N 36°05' W 005°24'0 0.1
2018-Mar-20 15:00N 36°05' W 005°24'0 0.0
2018-Mar-20 14:30N 36°05' W 005°24'0 0.2
2018-Mar-20 13:58N 36°05' W 005°24'1 2.0
2018-Mar-20 13:30N 36°05' W 005°23'4 8.1
2018-Mar-20 13:00N 36°09' W 005°25'1 2.1
2018-Mar-20 12:30N 36°09' W 005°26'0 0.0
2018-Mar-20 12:00N 36°09' W 005°26'0 0.0
2018-Mar-20 11:30N 36°09' W 005°26'0 0.0
2018-Mar-20 11:00N 36°09' W 005°26'0 0.0
2018-Mar-20 10:29N 36°09' W 005°26'0 0.0
2018-Mar-20 09:57N 36°09' W 005°26'0 0.0
2018-Mar-20 09:30N 36°09' W 005°26'0 0.0
2018-Mar-20 09:00N 36°09' W 005°26'0 0.0
2018-Mar-20 08:30N 36°09' W 005°26'0 0.0
2018-Mar-20 08:00N 36°09' W 005°26'0 0.0
2018-Mar-20 07:30N 36°09' W 005°26'0 0.0
2018-Mar-20 07:00N 36°09' W 005°26'0 0.0
2018-Mar-20 06:30N 36°09' W 005°26'0 0.0
2018-Mar-20 06:00N 36°09' W 005°26'0 0.0
2018-Mar-20 05:30N 36°09' W 005°26'0 0.0
2018-Mar-20 05:00N 36°09' W 005°26'0 0.0
2018-Mar-20 04:30N 36°09' W 005°26'0 0.0
2018-Mar-20 04:00N 36°09' W 005°26'0 0.0
2018-Mar-20 03:30N 36°09' W 005°26'0 0.0
2018-Mar-20 03:00N 36°09' W 005°26'0 0.0
2018-Mar-20 02:30N 36°09' W 005°26'0 0.0
2018-Mar-20 02:00N 36°09' W 005°26'0 0.0
2018-Mar-20 01:30N 36°09' W 005°26'0 0.0
2018-Mar-20 01:00N 36°09' W 005°26'0 0.0
2018-Mar-20 00:30N 36°09' W 005°26'0 0.0
2018-Mar-20 00:00N 36°09' W 005°26'0 0.0
2018-Mar-19 23:30N 36°09' W 005°26'0 0.0
2018-Mar-19 23:00N 36°09' W 005°26'0 0.0
2018-Mar-19 22:30N 36°09' W 005°26'0 0.0
2018-Mar-19 22:00N 36°09' W 005°26'1 1.7
2018-Mar-19 21:30N 36°09' W 005°25'2 3.6
2018-Mar-19 21:00N 36°08' W 005°23'1 1.4
2018-Mar-19 20:30N 36°07' W 005°23'2 4.7
2018-Mar-19 20:00N 36°05' W 005°22'1 1.5
2018-Mar-19 19:30N 36°05' W 005°22'1 2.0
2018-Mar-19 19:00N 36°05' W 005°21'1 1.2
2018-Mar-19 18:30N 36°05' W 005°22'1 1.0
2018-Mar-19 18:00N 36°05' W 005°21'1 2.3
2018-Mar-19 17:30N 36°04' W 005°20'4 7.6
2018-Mar-19 17:00N 36°04' W 005°15'4 7.2
2018-Mar-19 16:30N 36°06' W 005°12'6 0.6
2018-Mar-19 06:37N 36°11' W 005°08'1 4.2
2018-Mar-19 06:27N 36°10' W 005°07'2 2.5
2018-Mar-19 05:49N 36°10' W 005°09'1 3.0
2018-Mar-19 05:30N 36°10' W 005°10'1 1.9
2018-Mar-19 04:57N 36°09' W 005°11'4 9.3
2018-Mar-19 04:30N 36°05' W 005°11'27412.2
2018-Mar-18 06:00N 36°54' E 000°24'   340 / 161002.1 5.4 11.1 8.713.0

Dump ship's entire track history